首页
METAR-TAF:

METAR-TAF

机场 :

赛义德·易卜拉欣王子国际机场

莫洛尼, 葛摩

纬度: 11-32S, 经度: 043-16E, 海拔: 29米

当前天气观测

该预报发布于4小时和13分钟前的20:00 UTC
风速6节,风向南转南东
温度 23°C
湿度 83%
气压 1020 hPa
能见度10公里或以上
少量云层高于2000英尺
散云层高于7000英尺

METAR: FMCH 162000Z 15006KT 9999 FEW020 SCT070 23/20 Q1020 NOSIG

时间: 03:13 (00:13 UTC)

预报

该预报发布于7小时和13分钟前的17:00 UTC
预报有效从16日的 18点(UTC)到 17日的 24点(UTC)
风速3节,风向东转东北
能见度10公里或以上
少量云层高于2000英尺
散云层高于3000英尺
成为
从 17日的 05点(UTC)到 17日的 07点(UTC)
风速10节,风向南转西南
成为
从 17日的 15点(UTC)到 17日的 17点(UTC)
风速2节,风向多变

TAF: FMCH 161700Z 1618/1724 07003KT 9999 FEW020 SCT030 BECMG 1705/1707 20010KT BECMG 1715/1717 VRB02KT

超过4000个机场的气象观测和天气预报(METAR&TAF报告)。

可查询的气象台以黄色和红色小点在地图上表示。

将鼠标移到小点上方,可查看气象台名称。

然后点击查看天气观测和预报。

如需切换地图:点击带黑十字的绿色按钮放大地图;点击带横线的绿色按钮缩小地图;或者点击绿色箭头查看邻近地区的地图。


METAR-TAF: